createdAt,value
2023-07-30T00:00:50.387Z,100872.44
2023-07-30T00:03:17.231Z,100866.16
2023-07-30T00:05:43.811Z,100870.44
2023-07-30T00:08:10.325Z,100871.50
2023-07-30T00:10:37.620Z,100874.91
2023-07-30T00:13:04.150Z,100876.47
2023-07-30T00:15:30.693Z,100874.84
2023-07-30T00:17:57.336Z,100879.56
2023-07-30T00:20:24.027Z,100881.16
2023-07-30T00:22:50.583Z,100876.03
2023-07-30T00:25:17.070Z,100880.25
2023-07-30T00:27:43.620Z,100880.25
2023-07-30T00:30:10.959Z,100888.84
2023-07-30T00:32:43.250Z,100892.63
2023-07-30T00:35:11.797Z,100885.13
2023-07-30T00:37:38.321Z,100884.31
2023-07-30T00:40:05.299Z,100885.47
2023-07-30T00:42:31.811Z,100885.81
2023-07-30T00:44:58.296Z,100876.81
2023-07-30T00:47:25.042Z,100881.47
2023-07-30T00:49:51.817Z,100882.25
2023-07-30T00:52:21.130Z,100872.88
2023-07-30T00:54:49.257Z,100874.84
2023-07-30T00:57:18.040Z,100870.53
2023-07-30T00:59:44.616Z,100877.50
2023-07-30T01:02:11.305Z,100874.38
2023-07-30T01:04:41.594Z,100885.22
2023-07-30T01:07:08.227Z,100886.78
2023-07-30T01:09:35.557Z,100883.28
2023-07-30T01:12:03.761Z,100890.28
2023-07-30T01:14:31.842Z,100896.13
2023-07-30T01:16:58.720Z,100895.72
2023-07-30T01:19:25.290Z,100896.53
2023-07-30T01:21:51.769Z,100905.59
2023-07-30T01:24:18.291Z,100904.06
2023-07-30T01:26:47.448Z,100917.72
2023-07-30T01:29:23.391Z,100900.47
2023-07-30T01:32:11.633Z,100910.19
2023-07-30T01:34:40.380Z,100910.50
2023-07-30T01:37:11.220Z,100912.06
2023-07-30T01:39:39.497Z,100912.84
2023-07-30T01:42:06.468Z,100917.50
2023-07-30T01:44:33.002Z,100910.03
2023-07-30T01:46:59.487Z,100914.81
2023-07-30T01:49:26.202Z,100912.91
2023-07-30T01:51:52.728Z,100916.44
2023-07-30T01:54:19.240Z,100911.38
2023-07-30T01:56:45.734Z,100923.47
2023-07-30T01:59:12.221Z,100911.66
2023-07-30T02:01:38.907Z,100912.06
2023-07-30T02:04:05.507Z,100914.03
2023-07-30T02:06:32.020Z,100910.91
2023-07-30T02:08:58.508Z,100918.31
2023-07-30T02:11:25.063Z,100914.38
2023-07-30T02:13:51.538Z,100914.38
2023-07-30T02:16:18.097Z,100914.41
2023-07-30T02:18:45.191Z,100910.88
2023-07-30T02:21:11.722Z,100910.91
2023-07-30T02:23:38.207Z,100908.19
2023-07-30T02:26:04.711Z,100911.28
2023-07-30T02:28:31.330Z,100906.19
2023-07-30T02:30:57.832Z,100907.75
2023-07-30T02:33:24.283Z,100910.88
2023-07-30T02:35:50.812Z,100908.16
2023-07-30T02:38:17.399Z,100907.31
2023-07-30T02:40:44.091Z,100909.25
2023-07-30T02:43:10.671Z,100897.19
2023-07-30T02:45:38.834Z,100897.56
2023-07-30T02:48:05.716Z,100895.25
2023-07-30T02:50:32.295Z,100897.59
2023-07-30T02:52:58.777Z,100890.56
2023-07-30T02:55:25.241Z,100895.25
2023-07-30T02:57:52.065Z,100894.09
2023-07-30T03:00:18.799Z,100890.56
2023-07-30T03:02:45.695Z,100898.78
2023-07-30T03:05:12.354Z,100892.53
2023-07-30T03:07:39.015Z,100894.09
2023-07-30T03:10:05.917Z,100894.88
2023-07-30T03:12:32.419Z,100896.03
2023-07-30T03:14:58.929Z,100893.31
2023-07-30T03:17:26.579Z,100897.97
2023-07-30T03:19:53.095Z,100894.47
2023-07-30T03:22:19.615Z,100895.69
2023-07-30T03:24:48.805Z,100890.69
2023-07-30T03:27:15.331Z,100902.38
2023-07-30T03:29:42.359Z,100900.47
2023-07-30T03:32:09.034Z,100903.19
2023-07-30T03:34:35.520Z,100898.91
2023-07-30T03:37:02.035Z,100898.13
2023-07-30T03:39:28.741Z,100899.69
2023-07-30T03:41:55.328Z,100907.41
2023-07-30T03:44:21.905Z,100907.41
2023-07-30T03:46:48.476Z,100913.25
2023-07-30T03:49:15.129Z,100912.84
2023-07-30T03:51:41.742Z,100914.06
2023-07-30T03:54:08.224Z,100917.63
2023-07-30T03:56:34.715Z,100924.66
2023-07-30T03:59:01.218Z,100921.13
2023-07-30T04:01:28.785Z,100918.00
2023-07-30T04:03:55.387Z,100913.69
2023-07-30T04:06:21.870Z,100907.47
2023-07-30T04:08:48.387Z,100911.00
2023-07-30T04:11:14.888Z,100919.97
2023-07-30T04:13:42.108Z,100912.19
2023-07-30T04:16:08.726Z,100911.41
2023-07-30T04:18:35.276Z,100911.84
2023-07-30T04:21:01.805Z,100913.03
2023-07-30T04:23:28.320Z,100906.84
2023-07-30T04:25:54.847Z,100913.13
2023-07-30T04:28:21.440Z,100913.56
2023-07-30T04:30:48.272Z,100915.53
2023-07-30T04:33:15.753Z,100918.31
2023-07-30T04:35:42.416Z,100914.44
2023-07-30T04:38:08.970Z,100921.50
2023-07-30T04:40:35.480Z,100923.50
2023-07-30T04:43:02.131Z,100921.59
2023-07-30T04:45:28.781Z,100921.22
2023-07-30T04:47:55.495Z,100928.69
2023-07-30T04:50:22.028Z,100930.66
2023-07-30T04:52:48.541Z,100928.72
2023-07-30T04:55:15.156Z,100932.66
2023-07-30T04:57:41.682Z,100928.00
2023-07-30T05:00:08.744Z,100938.94
2023-07-30T05:02:35.280Z,100930.00
2023-07-30T05:05:01.842Z,100939.78
2023-07-30T05:07:28.339Z,100934.31
2023-07-30T05:09:54.941Z,100939.41
2023-07-30T05:12:21.447Z,100938.63
2023-07-30T05:14:47.947Z,100938.63
2023-07-30T05:17:14.459Z,100943.31
2023-07-30T05:19:40.981Z,100942.16
2023-07-30T05:22:08.819Z,100950.00
2023-07-30T05:24:37.872Z,100943.75
2023-07-30T05:27:04.798Z,100944.94
2023-07-30T05:29:31.978Z,100950.41
2023-07-30T05:31:58.540Z,100949.69
2023-07-30T05:34:25.078Z,100953.97
2023-07-30T05:36:51.779Z,100953.97
2023-07-30T05:39:18.238Z,100946.56
2023-07-30T05:41:44.759Z,100946.56
2023-07-30T05:44:11.237Z,100955.50
2023-07-30T05:46:37.765Z,100957.09
2023-07-30T05:49:04.254Z,100951.25
2023-07-30T05:51:30.804Z,100955.94
2023-07-30T05:53:57.393Z,100958.72
2023-07-30T05:56:23.979Z,100960.31
2023-07-30T05:58:50.599Z,100947.41
2023-07-30T06:01:17.215Z,100950.16
2023-07-30T06:03:43.948Z,100948.25
2023-07-30T06:06:10.496Z,100952.94
2023-07-30T06:08:36.973Z,100955.28
2023-07-30T06:11:07.176Z,100955.31
2023-07-30T06:13:33.692Z,100951.44
2023-07-30T06:16:00.403Z,100951.44
2023-07-30T06:18:27.111Z,100954.94
2023-07-30T06:20:53.687Z,100957.31
2023-07-30T06:23:20.153Z,100958.09
2023-07-30T06:25:46.692Z,100958.88
2023-07-30T06:28:13.254Z,100955.41
2023-07-30T06:30:40.654Z,100965.59
2023-07-30T06:33:07.201Z,100961.66
2023-07-30T06:35:33.810Z,100964.84
2023-07-30T06:38:00.351Z,100962.13
2023-07-30T06:40:26.876Z,100961.34
2023-07-30T06:42:53.614Z,100960.28
2023-07-30T06:45:20.207Z,100965.38
2023-07-30T06:47:46.734Z,100959.88
2023-07-30T06:50:13.295Z,100953.63
2023-07-30T06:52:39.855Z,100958.38
2023-07-30T06:55:06.632Z,100960.31
2023-07-30T06:57:33.164Z,100954.84
2023-07-30T06:59:59.756Z,100956.81
2023-07-30T07:02:26.369Z,100954.06
2023-07-30T07:04:53.138Z,100963.84
2023-07-30T07:07:19.709Z,100957.19
2023-07-30T07:09:46.287Z,100966.97
2023-07-30T07:12:12.998Z,100964.63
2023-07-30T07:14:40.426Z,100974.81
2023-07-30T07:17:07.048Z,100971.31
2023-07-30T07:19:37.489Z,100978.75
2023-07-30T07:22:07.124Z,100982.69
2023-07-30T07:24:33.719Z,100974.03
2023-07-30T07:27:00.212Z,100970.50
2023-07-30T07:29:26.711Z,100982.63
2023-07-30T07:31:54.404Z,100985.00
2023-07-30T07:34:21.149Z,100990.47
2023-07-30T07:36:47.698Z,100992.84
2023-07-30T07:39:14.305Z,100994.41
2023-07-30T07:41:40.831Z,100999.50
2023-07-30T07:44:07.410Z,100997.16
2023-07-30T07:46:33.957Z,100999.56
2023-07-30T07:49:00.946Z,100989.75
2023-07-30T07:51:27.439Z,100992.16
2023-07-30T07:53:53.999Z,100991.38
2023-07-30T07:56:20.663Z,100990.63
2023-07-30T07:58:47.224Z,100989.84
2023-07-30T08:01:13.852Z,100995.72
2023-07-30T08:03:40.542Z,100985.56
2023-07-30T08:06:07.612Z,100980.50
2023-07-30T08:08:34.104Z,100983.25
2023-07-30T08:11:06.809Z,100976.63
2023-07-30T08:13:33.406Z,100973.16
2023-07-30T08:16:00.193Z,100972.38
2023-07-30T08:18:28.685Z,100974.72
2023-07-30T08:20:55.443Z,100977.09
2023-07-30T08:23:21.964Z,100969.63
2023-07-30T08:25:49.701Z,100977.09
2023-07-30T08:28:16.337Z,100985.69
2023-07-30T08:30:42.854Z,100982.19
2023-07-30T08:33:09.415Z,100962.97
2023-07-30T08:35:36.047Z,100987.28
2023-07-30T08:38:02.756Z,100989.25
2023-07-30T08:40:29.368Z,100988.84
2023-07-30T08:42:55.916Z,100997.06
2023-07-30T08:45:22.477Z,100992.00
2023-07-30T08:47:49.142Z,101000.22
2023-07-30T08:50:16.133Z,100992.78
2023-07-30T08:52:43.745Z,100981.81
2023-07-30T08:55:11.403Z,100995.91
2023-07-30T08:57:39.612Z,100992.78
2023-07-30T09:00:11.320Z,100993.94
2023-07-30T09:02:46.141Z,101010.41
2023-07-30T09:05:12.930Z,100989.63
2023-07-30T09:07:39.462Z,100997.47
2023-07-30T09:10:06.773Z,100994.69
2023-07-30T09:12:34.443Z,100995.47
2023-07-30T09:15:02.817Z,100996.69
2023-07-30T09:17:29.406Z,101017.47
2023-07-30T09:19:55.971Z,101013.16
2023-07-30T09:22:29.501Z,101005.34
2023-07-30T09:24:57.600Z,100998.25
2023-07-30T09:27:28.994Z,101009.59
2023-07-30T09:29:57.676Z,101001.75
2023-07-30T09:32:32.236Z,101003.59
2023-07-30T09:35:12.163Z,101012.53
2023-07-30T09:37:42.720Z,101019.66
2023-07-30T09:40:11.588Z,101031.47
2023-07-30T09:42:41.197Z,101014.56
2023-07-30T09:45:09.330Z,101020.47
2023-07-30T09:47:38.562Z,101021.28
2023-07-30T09:50:05.703Z,101019.34
2023-07-30T09:52:32.639Z,101018.56
2023-07-30T09:54:59.913Z,101020.38
2023-07-30T09:57:26.568Z,101018.59
2023-07-30T09:59:54.705Z,101018.91
2023-07-30T10:02:22.702Z,101022.81
2023-07-30T10:04:51.933Z,101026.69
2023-07-30T10:07:23.133Z,101038.00
2023-07-30T10:09:52.535Z,101028.34
2023-07-30T10:12:24.554Z,101037.88
2023-07-30T10:14:51.468Z,101042.00
2023-07-30T10:17:18.789Z,101023.59
2023-07-30T10:19:50.162Z,101031.00
2023-07-30T10:22:19.405Z,101027.13
2023-07-30T10:25:05.146Z,101035.00
2023-07-30T10:27:41.821Z,101046.50
2023-07-30T10:30:15.678Z,101047.72
2023-07-30T10:33:01.629Z,101055.63
2023-07-30T10:35:40.491Z,101061.53
2023-07-30T10:38:17.554Z,101049.75
2023-07-30T10:41:11.430Z,101059.25
2023-07-30T10:43:43.418Z,101061.66
2023-07-30T10:46:12.392Z,101067.50
2023-07-30T10:48:44.281Z,101061.44
2023-07-30T10:51:14.077Z,101053.34
2023-07-30T10:53:44.108Z,101065.16
2023-07-30T10:56:11.244Z,101059.00
2023-07-30T10:58:39.155Z,101065.84
2023-07-30T11:01:07.461Z,101073.34
2023-07-30T11:03:35.776Z,101066.16
2023-07-30T11:06:03.971Z,101067.97
2023-07-30T11:08:37.771Z,101071.91
2023-07-30T11:11:05.543Z,101067.97
2023-07-30T11:13:43.411Z,101066.78
2023-07-30T11:16:11.135Z,101065.91
2023-07-30T11:18:39.610Z,101070.13
2023-07-30T11:21:11.462Z,101068.34
2023-07-30T11:23:40.009Z,101079.84
2023-07-30T11:26:08.164Z,101086.81
2023-07-30T11:28:39.231Z,101073.09
2023-07-30T11:31:08.370Z,101082.78
2023-07-30T11:33:39.845Z,101087.81
2023-07-30T11:36:10.237Z,101095.00
2023-07-30T11:38:39.160Z,101099.06
2023-07-30T11:41:07.485Z,101092.84
2023-07-30T11:43:34.140Z,101104.28
2023-07-30T11:46:14.642Z,101099.66
2023-07-30T11:48:43.514Z,101106.34
2023-07-30T11:51:28.181Z,101099.06
2023-07-30T11:54:00.363Z,101105.47
2023-07-30T11:56:29.182Z,101101.38
2023-07-30T11:59:01.780Z,101103.81
2023-07-30T12:01:32.539Z,101114.88
2023-07-30T12:04:00.913Z,101103.50
2023-07-30T12:06:50.778Z,101118.53
2023-07-30T12:09:27.541Z,101132.66
2023-07-30T12:12:01.626Z,101119.47
2023-07-30T12:14:50.042Z,101115.03
2023-07-30T12:17:16.642Z,101104.97
2023-07-30T12:19:43.603Z,101113.31
2023-07-30T12:22:10.438Z,101109.53
2023-07-30T12:24:37.232Z,101104.28
2023-07-30T12:27:04.121Z,101121.38
2023-07-30T12:29:30.722Z,101115.53
2023-07-30T12:31:57.855Z,101116.72
2023-07-30T12:34:25.419Z,101115.13
2023-07-30T12:36:52.026Z,101113.91
2023-07-30T12:39:18.757Z,101132.63
2023-07-30T12:41:45.419Z,101112.03
2023-07-30T12:44:11.968Z,101109.34
2023-07-30T12:46:38.559Z,101110.41
2023-07-30T12:49:05.921Z,101115.78
2023-07-30T12:51:33.891Z,101118.53
2023-07-30T12:54:00.904Z,101128.72
2023-07-30T12:56:27.574Z,101118.91
2023-07-30T12:58:54.495Z,101120.31
2023-07-30T13:01:21.100Z,101127.84
2023-07-30T13:03:48.497Z,101124.19
2023-07-30T13:06:15.088Z,101138.13
2023-07-30T13:08:41.622Z,101123.84
2023-07-30T13:11:08.562Z,101136.13
2023-07-30T13:13:35.114Z,101154.31
2023-07-30T13:16:02.836Z,101150.09
2023-07-30T13:18:30.404Z,101139.66
2023-07-30T13:20:56.963Z,101145.09
2023-07-30T13:23:26.344Z,101146.94
2023-07-30T13:25:53.005Z,101134.22
2023-07-30T13:28:19.569Z,101146.97
2023-07-30T13:30:46.177Z,101149.88
2023-07-30T13:33:12.717Z,101136.56
2023-07-30T13:35:39.451Z,101173.91
2023-07-30T13:38:05.943Z,101142.25
2023-07-30T13:40:32.498Z,101157.84
2023-07-30T13:42:58.982Z,101153.84
2023-07-30T13:45:25.571Z,101132.72
2023-07-30T13:47:52.389Z,101138.84
2023-07-30T13:50:19.063Z,101127.31
2023-07-30T13:52:45.762Z,101119.38
2023-07-30T13:55:12.322Z,101133.53
2023-07-30T13:57:38.808Z,101127.75
2023-07-30T14:00:07.279Z,101140.28
2023-07-30T14:02:34.095Z,101146.28
2023-07-30T14:05:00.674Z,101141.63
2023-07-30T14:07:27.149Z,101153.09
2023-07-30T14:09:53.606Z,101142.47
2023-07-30T14:12:20.103Z,101150.03
2023-07-30T14:14:46.593Z,101156.31
2023-07-30T14:19:43.127Z,101142.53
2023-07-30T14:22:09.685Z,101145.31
2023-07-30T14:24:38.517Z,101131.88
2023-07-30T14:27:06.154Z,101134.13
2023-07-30T14:29:32.739Z,101129.13
2023-07-30T14:31:59.510Z,101155.81
2023-07-30T14:34:26.043Z,101159.94
2023-07-30T14:36:52.552Z,101147.41
2023-07-30T14:39:19.239Z,101148.22
2023-07-30T14:41:45.901Z,101132.16
2023-07-30T14:44:12.415Z,101149.47
2023-07-30T14:46:38.971Z,101137.56
2023-07-30T14:49:05.532Z,101168.03
2023-07-30T14:51:32.071Z,101134.00
2023-07-30T14:53:58.684Z,101141.56
2023-07-30T14:56:25.256Z,101147.66
2023-07-30T14:58:51.763Z,101136.31
2023-07-30T15:01:18.300Z,101146.25
2023-07-30T15:03:44.896Z,101144.31
2023-07-30T15:06:11.491Z,101131.72
2023-07-30T15:08:38.058Z,101152.59
2023-07-30T15:11:04.564Z,101151.41
2023-07-30T15:13:31.116Z,101147.44
2023-07-30T15:15:57.707Z,101150.19
2023-07-30T15:18:24.289Z,101134.44
2023-07-30T15:20:50.926Z,101140.31
2023-07-30T15:23:17.758Z,101124.56
2023-07-30T15:25:44.402Z,101150.13
2023-07-30T15:28:11.033Z,101131.69
2023-07-30T15:30:39.574Z,101136.78
2023-07-30T15:33:09.514Z,101143.91
2023-07-30T15:35:36.138Z,101143.91
2023-07-30T15:38:05.649Z,101138.75
2023-07-30T15:40:32.188Z,101124.88
2023-07-30T15:42:59.290Z,101138.13
2023-07-30T15:45:25.986Z,101129.84
2023-07-30T15:47:55.104Z,101129.50
2023-07-30T15:50:25.044Z,101144.78
2023-07-30T15:52:51.542Z,101136.44
2023-07-30T15:55:18.135Z,101160.81
2023-07-30T15:57:44.919Z,101142.69
2023-07-30T16:00:13.721Z,101153.25
2023-07-30T16:02:40.601Z,101146.16
2023-07-30T16:05:07.470Z,101139.63
2023-07-30T16:07:33.993Z,101132.63
2023-07-30T16:10:00.717Z,101153.56
2023-07-30T16:12:27.618Z,101141.50
2023-07-30T16:14:54.924Z,101149.88
2023-07-30T16:17:21.455Z,101137.34
2023-07-30T16:19:48.075Z,101136.59
2023-07-30T16:22:14.595Z,101131.44
2023-07-30T16:24:41.098Z,101119.19
2023-07-30T16:27:07.861Z,101126.66
2023-07-30T16:29:34.370Z,101119.16
2023-07-30T16:32:00.877Z,101120.72
2023-07-30T16:34:27.488Z,101132.94
2023-07-30T16:36:53.992Z,101131.78
2023-07-30T16:39:20.492Z,101118.06
2023-07-30T16:41:47.020Z,101112.28
2023-07-30T16:44:13.538Z,101122.16
2023-07-30T16:46:40.241Z,101133.19
2023-07-30T16:49:08.770Z,101122.22
2023-07-30T16:51:36.422Z,101119.13
2023-07-30T16:54:02.953Z,101123.16
2023-07-30T16:56:29.462Z,101122.78
2023-07-30T16:58:55.955Z,101125.56
2023-07-30T17:01:23.121Z,101138.56
2023-07-30T17:03:49.864Z,101134.28
2023-07-30T17:06:17.433Z,101133.97
2023-07-30T17:08:44.021Z,101139.47
2023-07-30T17:11:10.680Z,101140.72
2023-07-30T17:13:37.279Z,101139.16
2023-07-30T17:16:11.249Z,101143.47
2023-07-30T17:18:38.374Z,101148.97
2023-07-30T17:21:05.463Z,101148.56
2023-07-30T17:23:32.119Z,101147.41
2023-07-30T17:26:02.835Z,101140.72
2023-07-30T17:28:30.051Z,101148.53
2023-07-30T17:30:57.324Z,101139.91
2023-07-30T17:33:24.338Z,101134.03
2023-07-30T17:35:51.085Z,101150.09
2023-07-30T17:38:17.907Z,101146.16
2023-07-30T17:40:54.703Z,101147.34
2023-07-30T17:43:22.425Z,101151.25
2023-07-30T17:45:49.752Z,101163.00
2023-07-30T17:48:17.127Z,101154.75
2023-07-30T17:50:43.714Z,101150.00
2023-07-30T17:53:10.276Z,101142.97
2023-07-30T17:55:41.761Z,101140.97
2023-07-30T17:58:08.313Z,101152.72
2023-07-30T18:00:34.893Z,101146.44
2023-07-30T18:03:01.604Z,101136.97
2023-07-30T18:05:37.701Z,101139.69
2023-07-30T18:08:12.182Z,101124.41
2023-07-30T18:10:38.729Z,101134.59
2023-07-30T18:13:05.964Z,101141.22
2023-07-30T18:15:32.451Z,101146.72
2023-07-30T18:17:59.055Z,101137.69
2023-07-30T18:20:26.111Z,101140.06
2023-07-30T18:22:52.661Z,101136.50
2023-07-30T18:25:19.220Z,101137.63
2023-07-30T18:27:45.715Z,101139.19
2023-07-30T18:30:12.287Z,101130.16
2023-07-30T18:32:38.956Z,101127.78
2023-07-30T18:35:06.071Z,101137.13
2023-07-30T18:37:33.419Z,101143.78
2023-07-30T18:40:00.597Z,101133.56
2023-07-30T18:42:27.153Z,101137.03
2023-07-30T18:44:55.159Z,101125.66
2023-07-30T18:47:24.341Z,101133.84
2023-07-30T18:49:52.280Z,101122.09
2023-07-30T18:52:19.236Z,101126.78
2023-07-30T18:54:45.964Z,101121.28
2023-07-30T18:57:13.233Z,101132.63
2023-07-30T18:59:40.064Z,101123.59
2023-07-30T19:02:08.113Z,101133.38
2023-07-30T19:04:34.927Z,101131.38
2023-07-30T19:07:01.577Z,101118.06
2023-07-30T19:09:28.121Z,101128.19
2023-07-30T19:11:54.653Z,101121.13
2023-07-30T19:14:21.259Z,101124.25
2023-07-30T19:16:47.771Z,101131.28
2023-07-30T19:19:14.401Z,101134.31
2023-07-30T19:21:41.017Z,101136.59
2023-07-30T19:24:07.617Z,101133.00
2023-07-30T19:26:34.294Z,101132.94
2023-07-30T19:29:00.845Z,101132.53
2023-07-30T19:31:27.418Z,101125.09
2023-07-30T19:33:53.924Z,101126.63
2023-07-30T19:36:20.496Z,101118.78
2023-07-30T19:38:47.095Z,101123.06
2023-07-30T19:41:26.934Z,101120.31
2023-07-30T19:43:54.169Z,101130.47
2023-07-30T19:46:20.735Z,101125.72
2023-07-30T19:48:47.684Z,101118.69
2023-07-30T19:51:14.800Z,101103.81
2023-07-30T19:53:41.272Z,101103.75
2023-07-30T19:56:10.033Z,101110.41
2023-07-30T19:58:36.793Z,101097.06
2023-07-30T20:01:03.676Z,101104.06
2023-07-30T20:03:31.374Z,101092.31
2023-07-30T20:06:02.669Z,101115.31
2023-07-30T20:08:29.934Z,101110.97
2023-07-30T20:10:57.625Z,101101.56
2023-07-30T20:13:24.866Z,101105.03
2023-07-30T20:15:52.518Z,101104.63
2023-07-30T20:18:19.279Z,101112.06
2023-07-30T20:20:45.820Z,101101.44
2023-07-30T20:23:12.560Z,101098.28
2023-07-30T20:25:39.970Z,101101.38
2023-07-30T20:28:07.781Z,101088.88
2023-07-30T20:30:36.530Z,101090.75
2023-07-30T20:33:03.623Z,101090.34
2023-07-30T20:35:30.330Z,101092.25
2023-07-30T20:38:00.576Z,101090.22
2023-07-30T20:40:28.453Z,101079.66
2023-07-30T20:42:55.518Z,101093.28
2023-07-30T20:45:22.985Z,101095.59
2023-07-30T20:47:50.974Z,101088.53
2023-07-30T20:50:17.929Z,101088.16
2023-07-30T20:52:45.596Z,101095.50
2023-07-30T20:55:13.430Z,101090.44
2023-07-30T20:57:41.204Z,101088.03
2023-07-30T21:00:08.959Z,101098.53
2023-07-30T21:02:36.516Z,101103.59
2023-07-30T21:05:03.334Z,101085.97
2023-07-30T21:07:29.880Z,101091.44
2023-07-30T21:09:56.440Z,101084.72
2023-07-30T21:12:23.321Z,101096.03
2023-07-30T21:14:50.016Z,101081.59
2023-07-30T21:17:18.551Z,101093.63
2023-07-30T21:19:45.937Z,101094.38
2023-07-30T21:22:12.962Z,101080.69
2023-07-30T21:24:39.493Z,101086.16
2023-07-30T21:27:06.282Z,101077.16
2023-07-30T21:29:33.034Z,101083.00
2023-07-30T21:31:59.698Z,101070.91
2023-07-30T21:34:26.324Z,101058.03
2023-07-30T21:36:52.806Z,101064.22
2023-07-30T21:39:19.386Z,101062.59
2023-07-30T21:41:45.862Z,101061.06
2023-07-30T21:44:12.368Z,101054.41
2023-07-30T21:46:39.195Z,101039.09
2023-07-30T21:49:06.059Z,101048.09
2023-07-30T21:51:32.553Z,101055.84
2023-07-30T21:53:59.228Z,101048.00
2023-07-30T21:56:25.746Z,101047.16
2023-07-30T21:58:52.268Z,101040.16
2023-07-30T22:01:18.844Z,101050.00
2023-07-30T22:03:45.401Z,101069.88
2023-07-30T22:06:11.899Z,101063.56
2023-07-30T22:08:38.430Z,101061.94
2023-07-30T22:11:05.104Z,101057.19
2023-07-30T22:13:31.631Z,101051.69
2023-07-30T22:15:58.128Z,101048.53
2023-07-30T22:18:24.674Z,101053.22
2023-07-30T22:20:51.195Z,101044.97
2023-07-30T22:23:17.721Z,101043.81
2023-07-30T22:25:44.227Z,101048.03
2023-07-30T22:28:10.914Z,101034.78
2023-07-30T22:30:41.369Z,101035.56
2023-07-30T22:33:08.441Z,101023.91
2023-07-30T22:35:35.096Z,101030.16
2023-07-30T22:38:01.701Z,101021.91
2023-07-30T22:40:28.698Z,101017.63
2023-07-30T22:42:55.187Z,101029.31
2023-07-30T22:45:21.998Z,101024.28
2023-07-30T22:47:49.224Z,101023.88
2023-07-30T22:50:15.906Z,101014.88
2023-07-30T22:52:42.512Z,101014.50
2023-07-30T22:55:09.211Z,101006.69
2023-07-30T22:57:36.216Z,100999.31
2023-07-30T23:00:03.840Z,101021.53
2023-07-30T23:02:30.412Z,101005.53
2023-07-30T23:04:56.981Z,101006.72
2023-07-30T23:07:23.504Z,101009.53
2023-07-30T23:09:50.042Z,101014.56
2023-07-30T23:12:16.684Z,100997.06
2023-07-30T23:14:43.230Z,101012.34
2023-07-30T23:17:09.799Z,100993.59
2023-07-30T23:19:36.350Z,100981.94
2023-07-30T23:22:04.903Z,100991.28
2023-07-30T23:24:32.820Z,100995.16
2023-07-30T23:26:59.344Z,100984.31
2023-07-30T23:29:25.834Z,100983.19
2023-07-30T23:31:53.643Z,100971.09
2023-07-30T23:34:20.292Z,100977.34
2023-07-30T23:36:46.781Z,100977.34
2023-07-30T23:39:13.259Z,100965.63
2023-07-30T23:41:39.771Z,100958.66
2023-07-30T23:44:06.248Z,100958.72
2023-07-30T23:46:32.753Z,100960.66
2023-07-30T23:48:59.234Z,100963.78
2023-07-30T23:51:25.808Z,100961.06
2023-07-30T23:53:54.046Z,100947.44
2023-07-30T23:56:20.637Z,100943.59
2023-07-30T23:58:47.184Z,100954.91
